Time;durP1;ratioP1;P1;durP2;ratioP2;P2;SDS_P1;SDS_P2;PMS_P1;PMS_P2;Temp;Humidity;BMP_temperature;BMP_pressure;BME280_temperature;BME280_humidity;BME280_pressure;Samples;Min_cycle;Max_cycle;Signal;HPM_P1;HPM_P2
2023/03/06 00:00:38;;;;;;;2.57;2.47;;;5.20;99.90;;;;;;5059027;28;20201;-62
2023/03/06 00:03:05;;;;;;;2.90;2.70;;;5.30;99.90;;;;;;5057666;28;20220;-62
2023/03/06 00:05:32;;;;;;;2.67;2.47;;;5.30;99.90;;;;;;5058589;28;20983;-66
2023/03/06 00:07:59;;;;;;;2.20;2.10;;;5.30;99.90;;;;;;5061307;28;20203;-63
2023/03/06 00:10:29;;;;;;;2.70;2.50;;;5.30;99.90;;;;;;5059369;28;20299;-65
2023/03/06 00:12:59;;;;;;;2.63;2.53;;;5.30;99.90;;;;;;5058667;28;20227;-62
2023/03/06 00:15:27;;;;;;;2.63;2.43;;;5.20;99.90;;;;;;5058638;28;20187;-62
2023/03/06 00:17:56;;;;;;;2.83;2.63;;;5.20;99.90;;;;;;5060881;28;20196;-63
2023/03/06 00:20:23;;;;;;;2.70;2.57;;;5.10;99.90;;;;;;5056542;28;20214;-61
2023/03/06 00:22:51;;;;;;;2.90;2.70;;;5.20;99.90;;;;;;5059464;28;20215;-62
2023/03/06 00:25:19;;;;;;;3.05;2.85;;;5.10;99.90;;;;;;5060014;28;20654;-64
2023/03/06 00:27:46;;;;;;;2.80;2.70;;;5.10;99.90;;;;;;5059542;28;20667;-62
2023/03/06 00:30:17;;;;;;;2.50;2.40;;;5.00;99.90;;;;;;5058729;28;20559;-63
2023/03/06 00:32:45;;;;;;;2.80;2.60;;;5.10;99.90;;;;;;5054778;28;20649;-64
2023/03/06 00:35:12;;;;;;;2.70;2.50;;;5.10;99.90;;;;;;5050184;28;20276;-63
2023/03/06 00:37:39;;;;;;;2.80;2.60;;;5.20;99.90;;;;;;5045314;28;20609;-64
2023/03/06 00:40:08;;;;;;;2.43;2.23;;;5.20;99.90;;;;;;5048340;28;20659;-62
2023/03/06 00:42:35;;;;;;;2.53;2.33;;;5.20;99.90;;;;;;5060877;28;20698;-63
2023/03/06 00:45:02;;;;;;;2.83;2.63;;;5.20;99.90;;;;;;5058641;28;20199;-63
2023/03/06 00:47:31;;;;;;;2.43;2.33;;;5.30;99.90;;;;;;5062704;28;20249;-62
2023/03/06 00:49:57;;;;;;;2.67;2.57;;;5.30;99.90;;;;;;5051629;28;20191;-64
2023/03/06 00:52:24;;;;;;;2.10;2.00;;;5.30;99.90;;;;;;5052202;28;20596;-62
2023/03/06 00:54:51;;;;;;;2.60;2.50;;;5.30;99.90;;;;;;5056742;28;20204;-62
2023/03/06 00:57:18;;;;;;;2.27;2.17;;;5.30;99.90;;;;;;5061653;28;20743;-62
2023/03/06 00:59:45;;;;;;;2.50;2.40;;;5.30;99.90;;;;;;5062449;28;20195;-63
2023/03/06 01:02:12;;;;;;;2.50;2.40;;;5.30;99.90;;;;;;5061393;28;20235;-62
2023/03/06 01:04:41;;;;;;;2.73;2.60;;;5.30;99.90;;;;;;5061280;28;20646;-65
2023/03/06 01:07:08;;;;;;;2.50;2.40;;;5.30;99.90;;;;;;5056026;28;20216;-63
2023/03/06 01:09:34;;;;;;;2.20;2.10;;;5.30;99.90;;;;;;5060384;28;20675;-61
2023/03/06 01:12:01;;;;;;;2.87;2.67;;;5.30;99.90;;;;;;5046414;28;20220;-62
2023/03/06 01:14:30;;;;;;;2.10;2.00;;;5.40;99.90;;;;;;5053634;28;20192;-63
2023/03/06 01:16:56;;;;;;;2.50;2.40;;;5.40;99.90;;;;;;5058131;28;20313;-61
2023/03/06 01:19:23;;;;;;;2.43;2.33;;;5.20;99.90;;;;;;5059340;28;20570;-62
2023/03/06 01:21:51;;;;;;;2.40;2.30;;;5.10;99.90;;;;;;5057363;28;20306;-61
2023/03/06 01:24:18;;;;;;;2.50;2.40;;;5.00;99.90;;;;;;5050663;28;20226;-62
2023/03/06 01:26:45;;;;;;;2.10;2.00;;;5.00;99.90;;;;;;5050363;28;20649;-62
2023/03/06 01:29:12;;;;;;;2.27;2.10;;;4.90;99.90;;;;;;5054246;28;20199;-62
2023/03/06 01:31:39;;;;;;;2.10;2.00;;;4.90;99.90;;;;;;5052040;28;20591;-62
2023/03/06 01:34:05;;;;;;;2.45;2.33;;;4.90;99.90;;;;;;5055853;28;20689;-64
2023/03/06 01:36:32;;;;;;;2.00;1.90;;;4.90;99.90;;;;;;5065431;28;20199;-64
2023/03/06 01:39:02;;;;;;;2.10;2.00;;;5.00;99.90;;;;;;5065638;28;20244;-63
2023/03/06 01:41:31;;;;;;;2.10;2.00;;;5.10;99.90;;;;;;5067975;28;20202;-64
2023/03/06 01:43:58;;;;;;;2.00;1.90;;;5.10;99.90;;;;;;5075209;28;20290;-65
2023/03/06 01:46:37;;;;;;;2.03;1.93;;;5.10;99.90;;;;;;5078966;28;20210;-64
2023/03/06 01:49:07;;;;;;;1.90;1.80;;;5.10;99.90;;;;;;5071403;28;20197;-66
2023/03/06 01:51:38;;;;;;;2.10;2.00;;;5.10;99.90;;;;;;5071361;28;20202;-64
2023/03/06 01:54:11;;;;;;;1.97;1.87;;;5.10;99.90;;;;;;5068330;28;20264;-64
2023/03/06 01:56:40;;;;;;;2.53;2.30;;;5.00;99.90;;;;;;5064826;28;20351;-64
2023/03/06 01:59:07;;;;;;;2.20;2.10;;;5.00;99.90;;;;;;5064811;28;20244;-64
2023/03/06 02:01:38;;;;;;;2.57;2.47;;;5.00;99.90;;;;;;5065934;28;20234;-64
2023/03/06 02:04:05;;;;;;;2.23;2.13;;;4.90;99.90;;;;;;5063334;28;20227;-64
2023/03/06 02:06:33;;;;;;;2.50;2.40;;;4.90;99.90;;;;;;5061898;28;20261;-65
2023/03/06 02:09:00;;;;;;;2.50;2.30;;;4.80;99.90;;;;;;5065268;28;20195;-65
2023/03/06 02:11:28;;;;;;;2.13;2.03;;;4.90;99.90;;;;;;5066497;28;20649;-65
2023/03/06 02:13:55;;;;;;;2.20;2.10;;;5.00;99.90;;;;;;5065788;28;20219;-64
2023/03/06 02:16:26;;;;;;;1.97;1.87;;;4.90;99.90;;;;;;5066551;28;20230;-64
2023/03/06 02:18:55;;;;;;;2.20;2.10;;;4.80;99.90;;;;;;5062243;28;20196;-65
2023/03/06 02:21:29;;;;;;;2.33;2.13;;;4.70;99.90;;;;;;5068114;28;20203;-64
2023/03/06 02:24:22;;;;;;;2.20;2.10;;;4.70;99.90;;;;;;5066574;28;20234;-64
2023/03/06 02:26:52;;;;;;;2.15;2.05;;;4.70;99.90;;;;;;5065243;28;20188;-63
2023/03/06 02:29:24;;;;;;;2.37;2.20;;;4.70;99.90;;;;;;5074570;28;20204;-65
2023/03/06 02:31:51;;;;;;;2.10;2.00;;;4.70;99.90;;;;;;5083939;28;20287;-63
2023/03/06 02:34:49;;;;;;;2.30;2.20;;;4.70;99.90;;;;;;5077758;28;20249;-65
2023/03/06 02:37:16;;;;;;;2.50;2.40;;;4.60;99.90;;;;;;5084615;28;20215;-63
2023/03/06 02:39:46;;;;;;;2.35;2.25;;;4.60;99.90;;;;;;5068093;28;20297;-63
2023/03/06 02:42:19;;;;;;;2.30;2.20;;;4.70;99.90;;;;;;5057981;28;20193;-64
2023/03/06 02:44:46;;;;;;;2.13;2.03;;;4.60;99.90;;;;;;5065125;28;20199;-65
2023/03/06 02:47:12;;;;;;;2.43;2.23;;;4.60;99.90;;;;;;5067394;28;20226;-65
2023/03/06 02:49:39;;;;;;;2.30;2.20;;;4.60;99.90;;;;;;5064216;28;20192;-64
2023/03/06 02:52:07;;;;;;;2.50;2.30;;;4.70;99.90;;;;;;5060582;28;20693;-63
2023/03/06 02:54:33;;;;;;;2.53;2.37;;;4.70;99.90;;;;;;5057921;28;20206;-63
2023/03/06 02:57:00;;;;;;;2.10;2.00;;;4.80;99.90;;;;;;5061074;28;20285;-64
2023/03/06 02:59:29;;;;;;;2.50;2.40;;;4.80;99.90;;;;;;5062729;28;21193;-65
2023/03/06 03:01:56;;;;;;;2.40;2.30;;;4.80;99.90;;;;;;5058444;28;20196;-65
2023/03/06 03:04:22;;;;;;;2.23;2.13;;;4.80;99.90;;;;;;5060126;28;20213;-64
2023/03/06 03:06:49;;;;;;;2.40;2.20;;;4.80;99.90;;;;;;5062133;28;20646;-63
2023/03/06 03:09:16;;;;;;;2.50;2.30;;;4.80;99.90;;;;;;5060398;28;20241;-65
2023/03/06 03:11:43;;;;;;;2.53;2.37;;;4.80;99.90;;;;;;5060225;28;20692;-63
2023/03/06 03:14:10;;;;;;;2.43;2.33;;;4.70;99.90;;;;;;5061397;28;20215;-64
2023/03/06 03:16:38;;;;;;;2.47;2.27;;;4.70;99.90;;;;;;5060548;28;20199;-65
2023/03/06 03:19:05;;;;;;;2.43;2.33;;;4.60;99.90;;;;;;5060523;28;20191;-64
2023/03/06 03:21:31;;;;;;;2.30;2.10;;;4.60;99.90;;;;;;5061852;28;20209;-63
2023/03/06 03:23:58;;;;;;;2.10;2.00;;;4.70;99.90;;;;;;5059700;28;20220;-64
2023/03/06 03:26:25;;;;;;;1.93;1.83;;;4.70;99.90;;;;;;5060251;28;20203;-64
2023/03/06 03:28:52;;;;;;;2.10;2.00;;;4.80;99.90;;;;;;5062176;28;20202;-64
2023/03/06 03:31:19;;;;;;;2.00;1.90;;;4.90;99.90;;;;;;5060584;28;20220;-65
2023/03/06 03:33:47;;;;;;;2.10;2.00;;;4.90;99.90;;;;;;5059655;28;20320;-65
2023/03/06 03:36:14;;;;;;;2.20;2.10;;;4.90;99.90;;;;;;5056513;28;20196;-65
2023/03/06 03:38:40;;;;;;;2.03;1.93;;;4.90;99.90;;;;;;5060113;28;20202;-64
2023/03/06 03:41:07;;;;;;;1.95;1.85;;;4.90;99.90;;;;;;5061755;28;20208;-64
2023/03/06 03:43:34;;;;;;;2.20;2.10;;;5.00;99.90;;;;;;5071228;28;20226;-66
2023/03/06 03:46:01;;;;;;;2.30;2.20;;;5.00;99.90;;;;;;5070398;28;20209;-65
2023/03/06 03:48:28;;;;;;;2.10;2.00;;;5.00;99.90;;;;;;5070782;28;20770;-64
2023/03/06 03:51:01;;;;;;;2.10;2.00;;;5.20;99.90;;;;;;5070954;28;20222;-65
2023/03/06 03:53:28;;;;;;;1.80;1.70;;;5.10;99.90;;;;;;5067503;28;20237;-64
2023/03/06 03:55:55;;;;;;;2.87;2.67;;;5.10;99.90;;;;;;5056039;28;20572;-65
2023/03/06 03:58:22;;;;;;;2.30;2.20;;;5.10;99.90;;;;;;5059488;28;20199;-64
2023/03/06 04:00:49;;;;;;;2.33;2.20;;;5.10;99.90;;;;;;5061254;28;21639;-65
2023/03/06 04:03:15;;;;;;;2.07;1.97;;;5.00;99.90;;;;;;5057110;28;20211;-63
2023/03/06 04:05:42;;;;;;;2.20;2.00;;;5.00;99.90;;;;;;5059922;28;20209;-64
2023/03/06 04:08:11;;;;;;;2.28;2.17;;;4.90;99.90;;;;;;5064589;28;20203;-64
2023/03/06 04:10:38;;;;;;;2.17;2.07;;;4.90;99.90;;;;;;5059644;28;20212;-64
2023/03/06 04:13:05;;;;;;;2.30;2.20;;;4.90;99.90;;;;;;5061414;28;20270;-64
2023/03/06 04:15:32;;;;;;;2.88;2.67;;;4.80;99.90;;;;;;5064193;28;20214;-65
2023/03/06 04:17:59;;;;;;;2.07;1.97;;;4.80;99.90;;;;;;5071023;28;20658;-64
2023/03/06 04:20:26;;;;;;;2.10;2.00;;;4.70;99.90;;;;;;5063879;28;20206;-66
2023/03/06 04:22:53;;;;;;;2.20;2.10;;;4.70;99.90;;;;;;5051486;28;20553;-64
2023/03/06 04:25:21;;;;;;;2.20;2.10;;;4.70;99.90;;;;;;5050293;28;20204;-63
2023/03/06 04:27:48;;;;;;;2.20;2.10;;;4.70;99.90;;;;;;5050811;28;20218;-65
2023/03/06 04:30:15;;;;;;;2.30;2.10;;;4.70;99.90;;;;;;5050198;28;20208;-64
2023/03/06 04:32:42;;;;;;;2.00;1.90;;;4.70;99.90;;;;;;5058734;28;20228;-64
2023/03/06 04:35:09;;;;;;;2.30;2.20;;;4.70;99.90;;;;;;5058030;28;20615;-66
2023/03/06 04:37:36;;;;;;;2.47;2.37;;;4.70;99.90;;;;;;5056635;28;20208;-65
2023/03/06 04:40:03;;;;;;;2.60;2.40;;;4.70;99.90;;;;;;5055693;28;20245;-64
2023/03/06 04:42:31;;;;;;;2.20;2.10;;;4.60;99.90;;;;;;5050476;28;20230;-63
2023/03/06 04:44:58;;;;;;;2.17;2.07;;;4.70;99.90;;;;;;5049198;28;20204;-64
2023/03/06 04:47:25;;;;;;;1.90;1.80;;;4.70;99.90;;;;;;5049622;28;20212;-63
2023/03/06 04:49:51;;;;;;;2.17;1.97;;;4.70;99.90;;;;;;5049974;28;20665;-64
2023/03/06 04:52:18;;;;;;;2.00;1.90;;;4.70;99.90;;;;;;5051043;28;20227;-63
2023/03/06 04:54:45;;;;;;;2.20;2.10;;;4.70;99.90;;;;;;5050861;28;20207;-64
2023/03/06 04:57:13;;;;;;;2.10;2.00;;;4.70;99.90;;;;;;5051039;28;20208;-64
2023/03/06 04:59:41;;;;;;;2.25;2.15;;;4.70;99.90;;;;;;5050835;28;20207;-65
2023/03/06 05:02:08;;;;;;;2.30;2.20;;;4.60;99.90;;;;;;5049423;28;20207;-64
2023/03/06 05:04:35;;;;;;;2.30;2.20;;;4.60;99.90;;;;;;5050913;28;20245;-63
2023/03/06 05:07:01;;;;;;;2.10;1.90;;;4.60;99.90;;;;;;5051655;28;20593;-65
2023/03/06 05:09:28;;;;;;;2.10;2.00;;;4.60;99.90;;;;;;5052217;28;20200;-65
2023/03/06 05:11:55;;;;;;;2.50;2.40;;;4.60;99.90;;;;;;5050013;28;20964;-65
2023/03/06 05:14:22;;;;;;;2.57;2.40;;;4.60;99.90;;;;;;5050643;28;20230;-64
2023/03/06 05:16:50;;;;;;;2.20;2.10;;;4.60;99.90;;;;;;5051932;28;20199;-65
2023/03/06 05:19:17;;;;;;;2.13;2.03;;;4.50;99.90;;;;;;5052857;28;20207;-65
2023/03/06 05:21:44;;;;;;;2.00;1.90;;;4.50;99.90;;;;;;5053802;28;20258;-63
2023/03/06 05:24:11;;;;;;;2.07;1.97;;;4.50;99.90;;;;;;5049875;28;20220;-64
2023/03/06 05:26:38;;;;;;;2.80;2.60;;;4.50;99.90;;;;;;5052764;28;20206;-64
2023/03/06 05:29:05;;;;;;;2.33;2.00;;;4.50;99.90;;;;;;5052515;28;20283;-65
2023/03/06 05:31:31;;;;;;;2.37;2.20;;;4.40;99.90;;;;;;5052103;28;20306;-65
2023/03/06 05:34:00;;;;;;;2.40;2.30;;;4.40;99.90;;;;;;5052285;28;20402;-63
2023/03/06 05:36:26;;;;;;;2.40;2.23;;;4.40;99.90;;;;;;5051943;28;20210;-64
2023/03/06 05:38:53;;;;;;;2.30;2.20;;;4.30;99.90;;;;;;5052011;28;20208;-64
2023/03/06 05:41:20;;;;;;;1.93;1.83;;;4.30;99.90;;;;;;5049660;28;20704;-64
2023/03/06 05:43:47;;;;;;;2.27;2.10;;;4.30;99.90;;;;;;5050764;28;20228;-63
2023/03/06 05:46:14;;;;;;;2.43;2.30;;;4.30;99.90;;;;;;5050902;28;20294;-64
2023/03/06 05:48:41;;;;;;;2.50;2.30;;;4.30;99.90;;;;;;5051089;28;20208;-65
2023/03/06 05:51:10;;;;;;;2.67;2.50;;;4.30;99.90;;;;;;5052170;28;20214;-63
2023/03/06 05:53:37;;;;;;;2.30;2.20;;;4.30;99.90;;;;;;5050801;28;20228;-64
2023/03/06 05:56:07;;;;;;;2.20;2.10;;;4.30;99.90;;;;;;5054865;28;20325;-66
2023/03/06 05:58:34;;;;;;;2.30;2.20;;;4.30;99.90;;;;;;5055123;28;20558;-65
2023/03/06 06:01:08;;;;;;;2.60;2.50;;;4.20;99.90;;;;;;5051306;28;20214;-65
2023/03/06 06:03:35;;;;;;;2.30;2.20;;;4.20;99.90;;;;;;5052602;28;20230;-63
2023/03/06 06:06:04;;;;;;;4.37;2.57;;;4.20;99.90;;;;;;5051978;28;20227;-65
2023/03/06 06:08:32;;;;;;;2.60;2.50;;;4.10;99.90;;;;;;5053419;28;20242;-63
2023/03/06 06:10:59;;;;;;;2.43;2.17;;;4.10;99.90;;;;;;5049621;28;20212;-65
2023/03/06 06:13:26;;;;;;;2.20;2.10;;;4.20;99.90;;;;;;5053127;28;20698;-64
2023/03/06 06:15:53;;;;;;;2.30;2.20;;;4.20;99.90;;;;;;5053919;28;20204;-64
2023/03/06 06:18:20;;;;;;;2.23;2.13;;;4.30;99.90;;;;;;5054331;28;20307;-66
2023/03/06 06:20:47;;;;;;;2.33;2.23;;;4.30;99.90;;;;;;5055592;28;20203;-64
2023/03/06 06:23:13;;;;;;;2.27;2.17;;;4.40;99.90;;;;;;5056751;28;20223;-65
2023/03/06 06:25:42;;;;;;;2.43;2.33;;;4.40;99.90;;;;;;5055393;28;20214;-64
2023/03/06 06:28:08;;;;;;;2.30;2.20;;;4.40;99.90;;;;;;5063849;28;20231;-64
2023/03/06 06:30:35;;;;;;;2.70;2.50;;;4.40;99.90;;;;;;5064898;28;20235;-63
2023/03/06 06:33:02;;;;;;;2.40;2.30;;;4.50;99.90;;;;;;5068248;28;20279;-65
2023/03/06 06:35:29;;;;;;;2.50;2.30;;;4.50;99.90;;;;;;5064630;28;20254;-63
2023/03/06 06:37:56;;;;;;;2.43;2.33;;;4.50;99.90;;;;;;5062043;28;20276;-66
2023/03/06 06:40:23;;;;;;;2.13;2.03;;;4.50;99.90;;;;;;5056345;28;20690;-63
2023/03/06 06:42:52;;;;;;;2.45;2.35;;;4.50;99.90;;;;;;5054087;28;20259;-62
2023/03/06 06:45:19;;;;;;;2.33;2.23;;;4.50;99.90;;;;;;5052601;28;20204;-63
2023/03/06 06:47:50;;;;;;;2.50;2.30;;;4.60;99.90;;;;;;5054225;28;20214;-63
2023/03/06 06:50:17;;;;;;;2.60;2.40;;;4.60;99.90;;;;;;5052221;28;20610;-64
2023/03/06 06:52:43;;;;;;;2.90;2.70;;;4.60;99.90;;;;;;5052208;28;21094;-64
2023/03/06 06:55:12;;;;;;;2.80;2.60;;;4.60;99.90;;;;;;5049812;28;20224;-63
2023/03/06 06:57:40;;;;;;;2.17;2.05;;;4.60;99.90;;;;;;5052189;28;20203;-63
2023/03/06 07:00:12;;;;;;;2.90;2.70;;;4.60;99.90;;;;;;5052252;28;20208;-63
2023/03/06 07:02:39;;;;;;;2.63;2.50;;;4.50;99.90;;;;;;5052077;28;20310;-63
2023/03/06 07:05:07;;;;;;;2.57;2.47;;;4.50;99.90;;;;;;5051725;28;20655;-63
2023/03/06 07:07:36;;;;;;;2.50;2.40;;;4.40;99.90;;;;;;5052058;28;20307;-64
2023/03/06 07:10:05;;;;;;;2.57;2.40;;;4.50;99.90;;;;;;5052270;28;20200;-63
2023/03/06 07:12:33;;;;;;;2.83;2.50;;;4.60;99.90;;;;;;5051881;28;20239;-65
2023/03/06 07:15:00;;;;;;;2.78;2.63;;;4.60;99.90;;;;;;5050939;28;20281;-64
2023/03/06 07:17:29;;;;;;;2.57;2.40;;;4.70;99.90;;;;;;5052636;28;20200;-64
2023/03/06 07:19:55;;;;;;;2.60;2.40;;;4.70;99.90;;;;;;5051611;28;20208;-65
2023/03/06 07:22:22;;;;;;;2.73;2.53;;;4.70;99.90;;;;;;5051728;28;20936;-65
2023/03/06 07:24:49;;;;;;;4.50;2.97;;;4.80;99.90;;;;;;5047445;28;20200;-64
2023/03/06 07:27:16;;;;;;;2.90;2.70;;;4.80;99.90;;;;;;5049282;28;20611;-64
2023/03/06 07:29:43;;;;;;;2.65;2.45;;;4.80;99.90;;;;;;5048919;28;20196;-63
2023/03/06 07:32:10;;;;;;;2.53;2.43;;;4.80;99.90;;;;;;5049088;28;20199;-63
2023/03/06 07:34:38;;;;;;;2.50;2.40;;;4.90;99.90;;;;;;5048211;28;20212;-65
2023/03/06 07:37:05;;;;;;;2.20;2.10;;;4.90;99.90;;;;;;5048571;28;20247;-63
2023/03/06 07:39:32;;;;;;;2.50;2.40;;;5.00;99.90;;;;;;5048567;28;20204;-63
2023/03/06 07:41:59;;;;;;;3.00;2.80;;;5.00;99.90;;;;;;5048576;28;20550;-64
2023/03/06 07:44:26;;;;;;;2.23;2.13;;;5.10;99.90;;;;;;5047743;28;20206;-64
2023/03/06 07:46:52;;;;;;;2.37;2.27;;;5.20;99.90;;;;;;5049050;28;20200;-64
2023/03/06 07:49:19;;;;;;;2.60;2.40;;;5.20;99.90;;;;;;5046713;28;20196;-64
2023/03/06 07:51:47;;;;;;;2.67;2.50;;;5.20;99.90;;;;;;5053224;28;20196;-65
2023/03/06 07:54:14;;;;;;;2.67;2.57;;;5.30;99.90;;;;;;5060731;28;20608;-65
2023/03/06 07:56:41;;;;;;;2.60;2.50;;;5.30;99.90;;;;;;5059610;28;20295;-64
2023/03/06 07:59:09;;;;;;;2.57;2.47;;;5.40;99.90;;;;;;5065406;28;20630;-65
2023/03/06 08:01:38;;;;;;;2.80;2.60;;;5.40;99.90;;;;;;5064700;28;20200;-64
2023/03/06 08:04:05;;;;;;;2.50;2.40;;;5.40;99.90;;;;;;5063604;28;20215;-63
2023/03/06 08:06:32;;;;;;;2.43;2.33;;;5.40;99.90;;;;;;5066678;28;20207;-64
2023/03/06 08:09:00;;;;;;;2.47;2.27;;;5.50;99.90;;;;;;5059367;28;20666;-63
2023/03/06 08:11:29;;;;;;;2.28;2.17;;;5.60;99.90;;;;;;5060656;28;20213;-64
2023/03/06 08:13:57;;;;;;;2.40;2.30;;;5.70;99.90;;;;;;5061420;28;20316;-65
2023/03/06 08:16:27;;;;;;;2.10;2.00;;;5.70;99.90;;;;;;5059325;28;20689;-64
2023/03/06 08:18:54;;;;;;;3.13;2.93;;;5.80;99.90;;;;;;5058612;28;20696;-63
2023/03/06 08:21:23;;;;;;;2.80;2.60;;;5.90;99.90;;;;;;5059092;28;20196;-65
2023/03/06 08:23:50;;;;;;;2.50;2.40;;;5.90;99.90;;;;;;5053546;28;20216;-64
2023/03/06 08:26:21;;;;;;;2.90;2.70;;;5.90;99.90;;;;;;5050231;28;20206;-64
2023/03/06 08:28:48;;;;;;;2.73;2.60;;;6.00;99.90;;;;;;5048394;28;20196;-63
2023/03/06 08:31:25;;;;;;;3.17;2.93;;;6.00;99.90;;;;;;5050337;28;20196;-63
2023/03/06 08:33:52;;;;;;;3.60;2.80;;;5.90;99.90;;;;;;5047938;28;20223;-64
2023/03/06 08:36:19;;;;;;;2.50;2.40;;;6.00;99.90;;;;;;5049183;28;20298;-62
2023/03/06 08:38:45;;;;;;;4.13;3.27;;;6.00;99.90;;;;;;5050177;28;20202;-64
2023/03/06 08:41:12;;;;;;;3.50;3.20;;;6.00;99.90;;;;;;5049958;28;20686;-64
2023/03/06 08:43:41;;;;;;;2.55;2.40;;;6.10;99.90;;;;;;5049816;28;20226;-64
2023/03/06 08:46:08;;;;;;;2.77;2.57;;;6.20;99.90;;;;;;5050949;28;20204;-65
2023/03/06 08:48:34;;;;;;;2.30;2.20;;;6.20;99.90;;;;;;5051044;28;20211;-63
2023/03/06 08:51:01;;;;;;;2.47;2.37;;;6.20;99.90;;;;;;5050064;28;20291;-64
2023/03/06 08:53:28;;;;;;;2.63;2.53;;;6.20;99.90;;;;;;5049774;28;20277;-63
2023/03/06 08:55:55;;;;;;;2.50;2.40;;;6.20;99.90;;;;;;5049368;28;20276;-64
2023/03/06 08:58:22;;;;;;;2.33;2.23;;;6.20;99.90;;;;;;5050210;28;20564;-64
2023/03/06 09:00:51;;;;;;;2.50;2.40;;;6.30;99.90;;;;;;5050025;28;20206;-63
2023/03/06 09:03:18;;;;;;;2.53;2.43;;;6.40;99.90;;;;;;5052949;28;20306;-63
2023/03/06 09:05:46;;;;;;;2.10;2.00;;;6.40;99.90;;;;;;5051071;28;20230;-63
2023/03/06 09:08:12;;;;;;;2.57;2.47;;;6.50;99.90;;;;;;5051755;28;20204;-63
2023/03/06 09:10:39;;;;;;;2.50;2.40;;;6.40;99.90;;;;;;5050901;28;20208;-62
2023/03/06 09:13:06;;;;;;;2.40;2.30;;;6.50;99.90;;;;;;5050989;28;20224;-63
2023/03/06 09:15:33;;;;;;;2.70;2.60;;;6.50;99.90;;;;;;5049557;28;20216;-63
2023/03/06 09:18:01;;;;;;;2.13;2.03;;;6.50;99.90;;;;;;5050381;28;20203;-64
2023/03/06 09:20:28;;;;;;;2.30;2.17;;;6.50;99.90;;;;;;5049921;28;20211;-63
2023/03/06 09:22:55;;;;;;;2.25;2.15;;;6.50;99.90;;;;;;5051838;28;20227;-63
2023/03/06 09:25:22;;;;;;;2.20;2.10;;;6.60;99.90;;;;;;5057115;28;20192;-63
2023/03/06 09:27:49;;;;;;;2.40;2.20;;;6.60;99.90;;;;;;5056317;28;20291;-63
2023/03/06 09:30:17;;;;;;;2.42;2.28;;;6.70;99.90;;;;;;5053944;28;20227;-64
2023/03/06 09:32:44;;;;;;;2.30;2.20;;;6.60;99.90;;;;;;5053271;28;20781;-63
2023/03/06 09:35:14;;;;;;;2.27;2.17;;;6.70;99.90;;;;;;5054623;28;20223;-63
2023/03/06 09:37:41;;;;;;;2.20;2.10;;;6.80;99.90;;;;;;5053813;28;20203;-64
2023/03/06 09:40:15;;;;;;;2.40;2.30;;;6.70;99.90;;;;;;5050149;28;20196;-62
2023/03/06 09:42:42;;;;;;;2.20;2.10;;;6.70;99.90;;;;;;5048757;28;20277;-63
2023/03/06 09:45:13;;;;;;;2.37;2.27;;;6.80;99.90;;;;;;5048608;28;20582;-62
2023/03/06 09:47:51;;;;;;;2.73;2.63;;;6.90;99.90;;;;;;5045395;28;20192;-62
2023/03/06 09:50:28;;;;;;;2.60;2.50;;;6.90;99.90;;;;;;5051059;28;20188;-63
2023/03/06 09:53:13;;;;;;;2.40;2.30;;;6.80;99.90;;;;;;5053294;28;20215;-62
2023/03/06 09:55:42;;;;;;;2.40;2.20;;;6.90;99.90;;;;;;5052114;28;20322;-62
2023/03/06 09:58:16;;;;;;;2.67;2.47;;;7.00;99.90;;;;;;5052886;28;20755;-64
2023/03/06 10:00:48;;;;;;;2.23;2.13;;;7.10;99.90;;;;;;5050754;28;20707;-63
2023/03/06 10:03:21;;;;;;;2.70;2.50;;;7.10;99.90;;;;;;5052922;28;20236;-62
2023/03/06 10:05:53;;;;;;;2.40;2.30;;;7.10;99.90;;;;;;5052369;28;20189;-62
2023/03/06 10:08:25;;;;;;;2.30;2.20;;;7.10;99.90;;;;;;5053414;28;20212;-62
2023/03/06 10:11:01;;;;;;;2.50;2.40;;;7.10;99.90;;;;;;5052239;28;20217;-64
2023/03/06 10:13:36;;;;;;;2.33;2.23;;;7.10;99.90;;;;;;5053005;28;20226;-65
2023/03/06 10:16:12;;;;;;;2.50;2.40;;;7.20;99.90;;;;;;5052563;28;20214;-63
2023/03/06 10:18:39;;;;;;;3.27;2.13;;;7.20;99.90;;;;;;5051969;28;20191;-64
2023/03/06 10:21:30;;;;;;;3.10;2.60;;;7.20;99.90;;;;;;5050612;28;20196;-64
2023/03/06 10:24:09;;;;;;;2.10;2.00;;;7.20;99.90;;;;;;5049336;28;20733;-65
2023/03/06 10:26:40;;;;;;;2.37;2.27;;;7.30;99.90;;;;;;5050034;28;20222;-65
2023/03/06 10:29:31;;;;;;;2.90;2.60;;;7.30;99.90;;;;;;5054400;28;20196;-63
2023/03/06 10:32:09;;;;;;;2.42;2.33;;;7.30;99.90;;;;;;5049968;28;20250;-65
2023/03/06 10:34:39;;;;;;;2.37;2.27;;;7.30;99.90;;;;;;5051268;28;20727;-63
2023/03/06 10:37:18;;;;;;;2.20;2.10;;;7.40;99.90;;;;;;5052149;28;20211;-63
2023/03/06 10:39:45;;;;;;;2.80;2.60;;;7.50;99.90;;;;;;5050710;28;20188;-65
2023/03/06 10:42:12;;;;;;;2.43;2.33;;;7.60;99.90;;;;;;5051685;28;20200;-64
2023/03/06 10:44:38;;;;;;;2.10;2.00;;;7.60;99.90;;;;;;5051010;28;20682;-64
2023/03/06 10:47:27;;;;;;;2.37;2.27;;;7.60;99.90;;;;;;5052038;28;20286;-64
2023/03/06 10:49:59;;;;;;;2.33;2.23;;;7.60;99.90;;;;;;5042682;28;20517;-64
2023/03/06 10:52:29;;;;;;;2.00;1.90;;;7.60;99.90;;;;;;5041182;28;20227;-64
2023/03/06 10:55:24;;;;;;;2.40;2.30;;;7.70;99.90;;;;;;5039945;28;20224;-65
2023/03/06 10:57:51;;;;;;;2.30;2.20;;;7.80;99.90;;;;;;5034101;28;20201;-65
2023/03/06 11:00:28;;;;;;;2.60;2.40;;;7.70;99.90;;;;;;5040967;28;20204;-63
2023/03/06 11:03:07;;;;;;;2.17;2.07;;;7.80;99.90;;;;;;5036169;28;20332;-64
2023/03/06 11:05:33;;;;;;;2.27;2.17;;;7.80;99.90;;;;;;5036521;28;20690;-64
2023/03/06 11:08:02;;;;;;;2.30;2.20;;;7.90;99.90;;;;;;5034738;28;20205;-64
2023/03/06 11:10:32;;;;;;;2.00;1.90;;;7.90;99.90;;;;;;5041605;28;20224;-65
2023/03/06 11:13:05;;;;;;;1.83;1.73;;;7.90;99.90;;;;;;5033685;28;20718;-66
2023/03/06 11:15:31;;;;;;;2.22;2.13;;;8.00;99.90;;;;;;5036418;28;20317;-63
2023/03/06 11:18:02;;;;;;;2.23;2.13;;;8.00;99.90;;;;;;5034413;28;20259;-63
2023/03/06 11:20:32;;;;;;;2.20;2.10;;;8.00;99.90;;;;;;5041569;28;20303;-65
2023/03/06 11:23:06;;;;;;;2.27;2.17;;;8.00;99.90;;;;;;5034578;28;20236;-64
2023/03/06 11:25:37;;;;;;;2.07;1.97;;;8.00;99.90;;;;;;5037002;28;20722;-65
2023/03/06 11:28:08;;;;;;;1.90;1.80;;;8.10;99.90;;;;;;5034827;28;20193;-65
2023/03/06 11:30:43;;;;;;;2.17;2.07;;;8.10;99.90;;;;;;5041440;28;20328;-65
2023/03/06 11:33:18;;;;;;;1.80;1.70;;;8.10;99.90;;;;;;5034589;28;20262;-63
2023/03/06 11:35:51;;;;;;;2.10;2.00;;;8.10;99.90;;;;;;5036500;28;20219;-65
2023/03/06 11:38:24;;;;;;;2.10;2.00;;;8.10;99.90;;;;;;5032538;28;20197;-65
2023/03/06 11:40:53;;;;;;;1.98;1.88;;;8.20;99.90;;;;;;5041125;28;20209;-65
2023/03/06 11:43:25;;;;;;;2.17;2.07;;;8.20;99.90;;;;;;5042573;28;20220;-64
2023/03/06 11:45:57;;;;;;;2.43;2.23;;;8.30;99.90;;;;;;5044581;28;20192;-65
2023/03/06 11:48:28;;;;;;;2.30;2.20;;;8.30;99.90;;;;;;5046286;28;20211;-63
2023/03/06 11:51:01;;;;;;;2.10;2.00;;;8.20;99.90;;;;;;5048957;28;20985;-65
2023/03/06 11:53:34;;;;;;;2.27;2.17;;;8.30;99.90;;;;;;5049276;28;20228;-63
2023/03/06 11:56:08;;;;;;;2.17;2.07;;;8.20;99.90;;;;;;5047525;28;20289;-65
2023/03/06 11:58:56;;;;;;;2.30;2.20;;;8.30;99.90;;;;;;5047768;28;20211;-64
2023/03/06 12:01:27;;;;;;;2.03;1.93;;;8.20;99.90;;;;;;5048890;28;20212;-65
2023/03/06 12:04:03;;;;;;;2.30;2.20;;;8.20;99.90;;;;;;5049253;28;20269;-66
2023/03/06 12:06:41;;;;;;;2.20;2.10;;;8.20;99.90;;;;;;5049045;28;20202;-63
2023/03/06 12:09:30;;;;;;;2.23;2.13;;;8.30;99.90;;;;;;5049333;28;20196;-64
2023/03/06 12:12:17;;;;;;;2.20;2.10;;;8.30;99.90;;;;;;5048638;28;20258;-64
2023/03/06 12:14:57;;;;;;;2.00;1.90;;;8.20;99.90;;;;;;5047953;28;20204;-64
2023/03/06 12:17:35;;;;;;;2.40;2.30;;;8.20;99.90;;;;;;5043090;28;20200;-64
2023/03/06 12:20:22;;;;;;;2.07;1.97;;;8.20;99.90;;;;;;5043805;28;20294;-63
2023/03/06 12:22:51;;;;;;;1.80;1.70;;;8.20;99.90;;;;;;5043503;28;20242;-65
2023/03/06 12:25:36;;;;;;;2.50;2.30;;;8.20;99.90;;;;;;5038219;28;20659;-66
2023/03/06 12:28:41;;;;;;;1.93;1.83;;;8.10;99.90;;;;;;5042548;28;20211;-64
2023/03/06 12:31:26;;;;;;;2.40;1.95;;;8.10;99.90;;;;;;5002330;28;20223;-63
2023/03/06 12:34:07;;;;;;;2.13;2.03;;;8.10;99.90;;;;;;5036975;28;20728;-64
2023/03/06 12:36:46;;;;;;;2.20;2.10;;;8.10;99.90;;;;;;5041246;28;20229;-64
2023/03/06 12:39:24;;;;;;;2.00;1.90;;;8.10;99.90;;;;;;5041792;28;20224;-65
2023/03/06 12:42:14;;;;;;;2.10;2.00;;;8.10;99.90;;;;;;5041657;28;20203;-64
2023/03/06 12:45:12;;;;;;;2.13;2.03;;;8.10;99.90;;;;;;5041697;28;20670;-63
2023/03/06 12:47:42;;;;;;;2.20;2.10;;;8.20;99.90;;;;;;5059245;28;20200;-65
2023/03/06 12:50:18;;;;;;;2.20;2.10;;;8.10;99.90;;;;;;5060049;28;20219;-64
2023/03/06 12:52:47;;;;;;;2.30;2.20;;;8.10;99.90;;;;;;5056546;28;20314;-64
2023/03/06 12:55:17;;;;;;;2.20;2.10;;;8.10;99.90;;;;;;5059692;28;20627;-63
2023/03/06 12:57:47;;;;;;;2.00;1.90;;;8.20;99.90;;;;;;5056836;28;20658;-65
2023/03/06 13:00:47;;;;;;;1.90;1.80;;;8.20;99.90;;;;;;5059946;28;20195;-63
2023/03/06 13:03:18;;;;;;;2.10;2.00;;;8.20;99.90;;;;;;5060556;28;20224;-65
2023/03/06 13:06:10;;;;;;;1.67;1.58;;;8.10;99.90;;;;;;5058009;28;20294;-62
2023/03/06 13:09:02;;;;;;;1.90;1.80;;;8.10;99.90;;;;;;5029625;28;20528;-64
2023/03/06 13:12:03;;;;;;;2.50;2.30;;;8.10;99.90;;;;;;5047492;28;20216;-63